sensor_id;sensor_type;location;lat;lon;timestamp;P1;durP1;ratioP1;P2;durP2;ratioP2
19404;SDS011;9838;49.384;8.292;2022-08-19T00:05:55;6.18;;;4.55;;
19404;SDS011;9838;49.384;8.292;2022-08-19T00:15:57;5.40;;;4.43;;
19404;SDS011;9838;49.384;8.292;2022-08-19T00:26:00;6.80;;;4.63;;
19404;SDS011;9838;49.384;8.292;2022-08-19T00:36:03;6.65;;;4.45;;
19404;SDS011;9838;49.384;8.292;2022-08-19T00:46:07;6.50;;;4.28;;
19404;SDS011;9838;49.384;8.292;2022-08-19T00:56:09;5.05;;;4.25;;
19404;SDS011;9838;49.384;8.292;2022-08-19T01:06:11;5.95;;;4.32;;
19404;SDS011;9838;49.384;8.292;2022-08-19T01:16:13;4.93;;;4.25;;
19404;SDS011;9838;49.384;8.292;2022-08-19T01:26:16;5.05;;;3.95;;
19404;SDS011;9838;49.384;8.292;2022-08-19T01:36:27;4.95;;;3.85;;
19404;SDS011;9838;49.384;8.292;2022-08-19T01:46:29;5.78;;;4.78;;
19404;SDS011;9838;49.384;8.292;2022-08-19T01:56:31;6.32;;;4.53;;
19404;SDS011;9838;49.384;8.292;2022-08-19T02:06:32;5.40;;;4.47;;
19404;SDS011;9838;49.384;8.292;2022-08-19T02:16:35;5.72;;;4.43;;
19404;SDS011;9838;49.384;8.292;2022-08-19T02:26:37;6.38;;;4.70;;
19404;SDS011;9838;49.384;8.292;2022-08-19T02:36:39;5.65;;;4.82;;
19404;SDS011;9838;49.384;8.292;2022-08-19T02:46:40;7.47;;;4.93;;
19404;SDS011;9838;49.384;8.292;2022-08-19T02:56:44;5.85;;;4.35;;
19404;SDS011;9838;49.384;8.292;2022-08-19T03:06:46;7.55;;;4.75;;
19404;SDS011;9838;49.384;8.292;2022-08-19T03:16:51;5.55;;;4.70;;
19404;SDS011;9838;49.384;8.292;2022-08-19T03:26:54;5.38;;;4.50;;
19404;SDS011;9838;49.384;8.292;2022-08-19T03:37:02;4.25;;;3.72;;
19404;SDS011;9838;49.384;8.292;2022-08-19T03:47:05;4.63;;;3.63;;
19404;SDS011;9838;49.384;8.292;2022-08-19T03:57:07;4.97;;;3.53;;
19404;SDS011;9838;49.384;8.292;2022-08-19T04:07:10;4.65;;;3.67;;
19404;SDS011;9838;49.384;8.292;2022-08-19T04:17:15;6.68;;;4.20;;
19404;SDS011;9838;49.384;8.292;2022-08-19T04:27:17;4.93;;;3.90;;
19404;SDS011;9838;49.384;8.292;2022-08-19T04:37:19;4.75;;;3.85;;
19404;SDS011;9838;49.384;8.292;2022-08-19T04:47:20;6.70;;;3.78;;
19404;SDS011;9838;49.384;8.292;2022-08-19T04:57:23;3.72;;;3.08;;
19404;SDS011;9838;49.384;8.292;2022-08-19T05:07:24;4.63;;;3.28;;
19404;SDS011;9838;49.384;8.292;2022-08-19T05:17:26;3.40;;;3.10;;
19404;SDS011;9838;49.384;8.292;2022-08-19T05:27:28;3.58;;;3.17;;
19404;SDS011;9838;49.384;8.292;2022-08-19T05:37:30;3.70;;;2.95;;
19404;SDS011;9838;49.384;8.292;2022-08-19T05:47:32;3.08;;;2.72;;
19404;SDS011;9838;49.384;8.292;2022-08-19T05:57:34;3.42;;;2.78;;
19404;SDS011;9838;49.384;8.292;2022-08-19T06:07:36;2.72;;;2.28;;
19404;SDS011;9838;49.384;8.292;2022-08-19T06:17:39;4.82;;;2.78;;
19404;SDS011;9838;49.384;8.292;2022-08-19T06:27:42;3.58;;;2.60;;
19404;SDS011;9838;49.384;8.292;2022-08-19T06:37:44;4.50;;;3.22;;
19404;SDS011;9838;49.384;8.292;2022-08-19T06:47:46;5.45;;;3.15;;
19404;SDS011;9838;49.384;8.292;2022-08-19T06:57:48;3.60;;;2.92;;
19404;SDS011;9838;49.384;8.292;2022-08-19T07:07:53;3.67;;;2.30;;
19404;SDS011;9838;49.384;8.292;2022-08-19T07:17:55;2.40;;;2.05;;
19404;SDS011;9838;49.384;8.292;2022-08-19T07:27:57;3.00;;;2.38;;
19404;SDS011;9838;49.384;8.292;2022-08-19T07:37:58;3.35;;;2.50;;
19404;SDS011;9838;49.384;8.292;2022-08-19T07:48:03;4.43;;;2.13;;
19404;SDS011;9838;49.384;8.292;2022-08-19T07:58:05;3.42;;;2.40;;
19404;SDS011;9838;49.384;8.292;2022-08-19T08:08:07;4.00;;;2.17;;
19404;SDS011;9838;49.384;8.292;2022-08-19T08:18:44;14.70;;;4.15;;
19404;SDS011;9838;49.384;8.292;2022-08-19T08:28:46;7.28;;;2.40;;
19404;SDS011;9838;49.384;8.292;2022-08-19T08:38:48;4.05;;;2.20;;
19404;SDS011;9838;49.384;8.292;2022-08-19T08:59:39;4.38;;;2.35;;
19404;SDS011;9838;49.384;8.292;2022-08-19T09:09:24;4.05;;;2.20;;
19404;SDS011;9838;49.384;8.292;2022-08-19T09:19:36;3.60;;;1.98;;
19404;SDS011;9838;49.384;8.292;2022-08-19T09:29:49;3.85;;;1.98;;
19404;SDS011;9838;49.384;8.292;2022-08-19T09:39:50;4.75;;;2.33;;
19404;SDS011;9838;49.384;8.292;2022-08-19T09:49:53;2.30;;;1.98;;
19404;SDS011;9838;49.384;8.292;2022-08-19T09:59:55;2.97;;;2.25;;
19404;SDS011;9838;49.384;8.292;2022-08-19T10:09:57;2.70;;;1.95;;
19404;SDS011;9838;49.384;8.292;2022-08-19T10:19:59;2.33;;;1.73;;
19404;SDS011;9838;49.384;8.292;2022-08-19T10:30:00;2.25;;;1.60;;
19404;SDS011;9838;49.384;8.292;2022-08-19T10:40:03;2.15;;;1.70;;
19404;SDS011;9838;49.384;8.292;2022-08-19T10:50:07;2.22;;;1.80;;
19404;SDS011;9838;49.384;8.292;2022-08-19T11:00:27;2.40;;;2.00;;
19404;SDS011;9838;49.384;8.292;2022-08-19T11:10:31;1.80;;;1.58;;
19404;SDS011;9838;49.384;8.292;2022-08-19T11:20:33;2.78;;;2.00;;
19404;SDS011;9838;49.384;8.292;2022-08-19T11:30:36;2.88;;;1.90;;
19404;SDS011;9838;49.384;8.292;2022-08-19T11:40:38;2.30;;;1.70;;
19404;SDS011;9838;49.384;8.292;2022-08-19T11:50:41;2.30;;;1.77;;
19404;SDS011;9838;49.384;8.292;2022-08-19T12:00:44;2.53;;;1.60;;
19404;SDS011;9838;49.384;8.292;2022-08-19T12:10:46;2.13;;;1.40;;
19404;SDS011;9838;49.384;8.292;2022-08-19T12:20:50;1.55;;;1.10;;
19404;SDS011;9838;49.384;8.292;2022-08-19T12:30:52;1.90;;;1.15;;
19404;SDS011;9838;49.384;8.292;2022-08-19T12:40:54;1.30;;;1.00;;
19404;SDS011;9838;49.384;8.292;2022-08-19T12:50:56;1.70;;;1.20;;
19404;SDS011;9838;49.384;8.292;2022-08-19T13:00:58;1.98;;;1.15;;
19404;SDS011;9838;49.384;8.292;2022-08-19T13:11:06;2.13;;;1.10;;
19404;SDS011;9838;49.384;8.292;2022-08-19T13:21:08;1.58;;;0.90;;
19404;SDS011;9838;49.384;8.292;2022-08-19T13:31:17;1.60;;;1.10;;
19404;SDS011;9838;49.384;8.292;2022-08-19T13:41:37;1.30;;;0.85;;
19404;SDS011;9838;49.384;8.292;2022-08-19T13:51:48;1.40;;;0.90;;
19404;SDS011;9838;49.384;8.292;2022-08-19T14:01:50;1.48;;;0.90;;
19404;SDS011;9838;49.384;8.292;2022-08-19T14:11:52;1.90;;;0.80;;
19404;SDS011;9838;49.384;8.292;2022-08-19T14:21:55;2.13;;;1.05;;
19404;SDS011;9838;49.384;8.292;2022-08-19T14:31:58;1.00;;;0.85;;
19404;SDS011;9838;49.384;8.292;2022-08-19T14:42:06;1.05;;;0.77;;
19404;SDS011;9838;49.384;8.292;2022-08-19T14:52:09;1.77;;;0.90;;
19404;SDS011;9838;49.384;8.292;2022-08-19T15:02:11;2.10;;;1.10;;
19404;SDS011;9838;49.384;8.292;2022-08-19T15:12:13;1.98;;;1.08;;
19404;SDS011;9838;49.384;8.292;2022-08-19T15:22:14;1.80;;;1.10;;
19404;SDS011;9838;49.384;8.292;2022-08-19T15:32:16;1.25;;;0.85;;
19404;SDS011;9838;49.384;8.292;2022-08-19T15:42:19;1.15;;;0.80;;
19404;SDS011;9838;49.384;8.292;2022-08-19T15:52:21;1.48;;;1.08;;
19404;SDS011;9838;49.384;8.292;2022-08-19T16:02:24;1.20;;;0.85;;
19404;SDS011;9838;49.384;8.292;2022-08-19T16:12:45;1.17;;;0.80;;
19404;SDS011;9838;49.384;8.292;2022-08-19T16:22:47;1.60;;;0.95;;
19404;SDS011;9838;49.384;8.292;2022-08-19T16:32:49;2.22;;;0.90;;
19404;SDS011;9838;49.384;8.292;2022-08-19T16:42:51;1.92;;;0.93;;
19404;SDS011;9838;49.384;8.292;2022-08-19T16:52:54;1.45;;;1.10;;
19404;SDS011;9838;49.384;8.292;2022-08-19T17:03:03;1.83;;;1.30;;
19404;SDS011;9838;49.384;8.292;2022-08-19T17:13:06;4.57;;;1.33;;
19404;SDS011;9838;49.384;8.292;2022-08-19T17:23:08;1.98;;;1.20;;
19404;SDS011;9838;49.384;8.292;2022-08-19T17:33:10;1.83;;;1.20;;
19404;SDS011;9838;49.384;8.292;2022-08-19T17:43:13;3.55;;;1.48;;
19404;SDS011;9838;49.384;8.292;2022-08-19T17:53:15;1.92;;;1.50;;
19404;SDS011;9838;49.384;8.292;2022-08-19T18:03:18;2.53;;;1.38;;
19404;SDS011;9838;49.384;8.292;2022-08-19T18:13:20;2.55;;;1.50;;
19404;SDS011;9838;49.384;8.292;2022-08-19T18:23:24;1.95;;;1.13;;
19404;SDS011;9838;49.384;8.292;2022-08-19T18:33:26;2.17;;;1.50;;
19404;SDS011;9838;49.384;8.292;2022-08-19T18:43:28;2.78;;;1.67;;
19404;SDS011;9838;49.384;8.292;2022-08-19T18:53:49;2.53;;;1.55;;
19404;SDS011;9838;49.384;8.292;2022-08-19T19:03:52;2.10;;;1.40;;
19404;SDS011;9838;49.384;8.292;2022-08-19T19:13:53;2.25;;;1.35;;
19404;SDS011;9838;49.384;8.292;2022-08-19T19:23:55;1.83;;;1.52;;
19404;SDS011;9838;49.384;8.292;2022-08-19T19:33:59;2.13;;;1.17;;
19404;SDS011;9838;49.384;8.292;2022-08-19T19:44:01;2.08;;;1.38;;
19404;SDS011;9838;49.384;8.292;2022-08-19T19:54:04;1.98;;;1.27;;
19404;SDS011;9838;49.384;8.292;2022-08-19T20:04:07;2.47;;;1.23;;
19404;SDS011;9838;49.384;8.292;2022-08-19T20:14:20;2.05;;;1.33;;
19404;SDS011;9838;49.384;8.292;2022-08-19T20:24:24;2.20;;;1.30;;
19404;SDS011;9838;49.384;8.292;2022-08-19T20:34:26;1.40;;;1.00;;
19404;SDS011;9838;49.384;8.292;2022-08-19T20:44:28;2.55;;;1.00;;
19404;SDS011;9838;49.384;8.292;2022-08-19T20:54:30;1.25;;;0.80;;
19404;SDS011;9838;49.384;8.292;2022-08-19T21:04:32;1.55;;;0.88;;
19404;SDS011;9838;49.384;8.292;2022-08-19T21:14:37;2.78;;;0.80;;
19404;SDS011;9838;49.384;8.292;2022-08-19T21:24:40;1.25;;;0.65;;
19404;SDS011;9838;49.384;8.292;2022-08-19T21:34:43;1.60;;;0.98;;
19404;SDS011;9838;49.384;8.292;2022-08-19T21:44:46;1.20;;;0.70;;
19404;SDS011;9838;49.384;8.292;2022-08-19T21:54:48;1.13;;;0.70;;
19404;SDS011;9838;49.384;8.292;2022-08-19T22:04:52;0.95;;;0.60;;
19404;SDS011;9838;49.384;8.292;2022-08-19T22:14:54;0.68;;;0.47;;
19404;SDS011;9838;49.384;8.292;2022-08-19T22:25:08;0.93;;;0.57;;
19404;SDS011;9838;49.384;8.292;2022-08-19T22:35:14;0.70;;;0.40;;
19404;SDS011;9838;49.384;8.292;2022-08-19T22:45:16;0.65;;;0.45;;
19404;SDS011;9838;49.384;8.292;2022-08-19T22:55:18;1.48;;;0.50;;
19404;SDS011;9838;49.384;8.292;2022-08-19T23:05:21;0.63;;;0.30;;
19404;SDS011;9838;49.384;8.292;2022-08-19T23:15:25;0.60;;;0.40;;
19404;SDS011;9838;49.384;8.292;2022-08-19T23:25:28;0.35;;;0.25;;
19404;SDS011;9838;49.384;8.292;2022-08-19T23:35:32;0.40;;;0.30;;
19404;SDS011;9838;49.384;8.292;2022-08-19T23:45:37;0.28;;;0.20;;
19404;SDS011;9838;49.384;8.292;2022-08-19T23:55:41;0.10;;;0.10;;
